createdAt,value
2022-09-29T00:00:14.607Z,6.33
2022-09-29T00:02:41.092Z,6.34
2022-09-29T00:05:07.979Z,6.34
2022-09-29T00:07:34.504Z,6.43
2022-09-29T00:10:00.880Z,6.59
2022-09-29T00:12:27.266Z,6.68
2022-09-29T00:14:53.672Z,6.64
2022-09-29T00:17:20.131Z,6.70
2022-09-29T00:19:46.505Z,6.61
2022-09-29T00:22:12.904Z,6.64
2022-09-29T00:24:39.278Z,6.56
2022-09-29T00:27:05.705Z,6.59
2022-09-29T00:29:32.139Z,6.52
2022-09-29T00:31:58.563Z,6.50
2022-09-29T00:34:24.990Z,6.48
2022-09-29T00:36:51.375Z,6.52
2022-09-29T00:39:17.795Z,6.56
2022-09-29T00:41:44.206Z,6.48
2022-09-29T00:44:13.304Z,6.46
2022-09-29T00:46:51.337Z,6.46
2022-09-29T00:49:33.265Z,6.48
2022-09-29T00:52:08.001Z,6.53
2022-09-29T00:54:40.093Z,6.55
2022-09-29T00:57:08.902Z,6.54
2022-09-29T00:59:53.162Z,6.55
2022-09-29T01:02:21.782Z,6.64
2022-09-29T01:04:52.775Z,6.62
2022-09-29T01:07:22.172Z,6.65
2022-09-29T01:09:52.031Z,6.74
2022-09-29T01:12:18.574Z,6.85
2022-09-29T01:14:45.325Z,6.86
2022-09-29T01:17:11.798Z,6.87
2022-09-29T01:20:05.027Z,6.87
2022-09-29T01:22:58.428Z,6.74
2022-09-29T01:26:06.792Z,6.83
2022-09-29T01:29:08.470Z,6.87
2022-09-29T01:31:41.139Z,6.89
2022-09-29T01:34:23.997Z,6.76
2022-09-29T01:37:00.190Z,6.78
2022-09-29T01:39:34.639Z,6.79
2022-09-29T01:42:08.461Z,6.81
2022-09-29T01:44:42.883Z,6.79
2022-09-29T01:47:28.537Z,6.70
2022-09-29T01:50:00.788Z,6.69
2022-09-29T01:52:33.301Z,6.64
2022-09-29T01:55:03.526Z,6.55
2022-09-29T01:57:39.875Z,6.53
2022-09-29T02:00:11.582Z,6.58
2022-09-29T02:02:50.808Z,6.63
2022-09-29T02:05:22.438Z,6.58
2022-09-29T02:07:49.809Z,6.65
2022-09-29T02:10:27.008Z,6.60
2022-09-29T02:12:56.904Z,6.64
2022-09-29T02:15:28.452Z,6.48
2022-09-29T02:18:01.432Z,6.50
2022-09-29T02:20:27.867Z,6.61
2022-09-29T02:22:55.597Z,6.49
2022-09-29T02:25:23.718Z,6.47
2022-09-29T02:27:51.053Z,6.52
2022-09-29T02:30:18.310Z,6.50
2022-09-29T02:32:47.136Z,6.49
2022-09-29T02:35:14.658Z,6.55
2022-09-29T02:37:54.542Z,6.55
2022-09-29T02:40:29.757Z,6.64
2022-09-29T02:43:04.808Z,6.62
2022-09-29T02:45:49.695Z,6.68
2022-09-29T02:48:24.872Z,6.64
2022-09-29T02:51:39.045Z,6.64
2022-09-29T02:54:57.771Z,6.61
2022-09-29T02:57:59.517Z,6.67
2022-09-29T03:00:26.629Z,6.72
2022-09-29T03:02:53.051Z,6.68
2022-09-29T03:05:22.594Z,6.70
2022-09-29T03:07:49.419Z,6.72
2022-09-29T03:10:17.713Z,6.81
2022-09-29T03:12:44.301Z,6.83
2022-09-29T03:15:14.135Z,6.86
2022-09-29T03:17:41.017Z,6.88
2022-09-29T03:20:08.600Z,6.89
2022-09-29T03:22:35.435Z,6.98
2022-09-29T03:25:02.041Z,6.98
2022-09-29T03:27:28.507Z,6.95
2022-09-29T03:29:55.045Z,6.87
2022-09-29T03:32:21.453Z,6.97
2022-09-29T03:34:47.845Z,6.98
2022-09-29T03:37:14.264Z,7.02
2022-09-29T03:39:40.724Z,6.94
2022-09-29T03:42:07.468Z,7.01
2022-09-29T03:44:33.936Z,6.91
2022-09-29T03:47:00.819Z,7.04
2022-09-29T03:49:27.209Z,7.05
2022-09-29T03:51:53.590Z,7.08
2022-09-29T03:54:20.139Z,7.02
2022-09-29T03:56:46.537Z,7.07
2022-09-29T03:59:15.090Z,7.14
2022-09-29T04:01:41.619Z,7.03
2022-09-29T04:04:09.197Z,6.92
2022-09-29T04:06:36.605Z,6.93
2022-09-29T04:09:03.861Z,6.93
2022-09-29T04:11:30.488Z,6.99
2022-09-29T04:13:56.955Z,6.88
2022-09-29T04:16:23.370Z,6.86
2022-09-29T04:18:49.836Z,6.90
2022-09-29T04:21:16.832Z,7.02
2022-09-29T04:23:43.252Z,6.99
2022-09-29T04:26:09.746Z,6.98
2022-09-29T04:28:37.422Z,6.81
2022-09-29T04:31:04.851Z,6.62
2022-09-29T04:33:31.411Z,6.85
2022-09-29T04:35:59.071Z,6.83
2022-09-29T04:38:25.896Z,6.83
2022-09-29T04:40:52.310Z,6.81
2022-09-29T04:43:18.786Z,6.84
2022-09-29T04:45:45.163Z,6.87
2022-09-29T04:48:11.549Z,6.94
2022-09-29T04:50:38.290Z,6.92
2022-09-29T04:53:04.706Z,7.03
2022-09-29T04:55:31.087Z,7.10
2022-09-29T04:57:57.599Z,7.09
2022-09-29T05:00:23.966Z,7.14
2022-09-29T05:02:50.602Z,7.12
2022-09-29T05:05:17.404Z,7.16
2022-09-29T05:07:44.536Z,6.99
2022-09-29T05:10:11.346Z,7.00
2022-09-29T05:12:37.870Z,7.04
2022-09-29T05:15:06.163Z,6.99
2022-09-29T05:17:32.770Z,6.85
2022-09-29T05:19:59.167Z,6.77
2022-09-29T05:22:26.154Z,6.91
2022-09-29T05:24:53.087Z,6.96
2022-09-29T05:27:20.131Z,6.89
2022-09-29T05:29:46.789Z,7.00
2022-09-29T05:32:13.370Z,6.90
2022-09-29T05:34:39.840Z,6.97
2022-09-29T05:37:06.326Z,7.01
2022-09-29T05:39:34.564Z,7.13
2022-09-29T05:42:02.469Z,7.15
2022-09-29T05:44:29.247Z,7.21
2022-09-29T05:46:55.650Z,7.19
2022-09-29T05:49:23.272Z,7.13
2022-09-29T05:51:49.780Z,7.10
2022-09-29T05:54:16.476Z,7.11
2022-09-29T05:56:45.363Z,7.04
2022-09-29T05:59:12.195Z,7.10
2022-09-29T06:01:39.123Z,7.26
2022-09-29T06:04:05.630Z,7.25
2022-09-29T06:06:32.104Z,7.36
2022-09-29T06:08:59.167Z,7.34
2022-09-29T06:11:28.424Z,7.47
2022-09-29T06:13:55.800Z,7.35
2022-09-29T06:16:26.084Z,7.26
2022-09-29T06:18:53.473Z,7.22
2022-09-29T06:21:23.768Z,7.39
2022-09-29T06:23:51.398Z,7.44
2022-09-29T06:26:23.606Z,7.57
2022-09-29T06:28:51.070Z,7.68
2022-09-29T06:31:20.579Z,7.69
2022-09-29T06:33:47.173Z,7.86
2022-09-29T06:36:55.369Z,7.97
2022-09-29T06:39:21.844Z,7.91
2022-09-29T06:41:57.762Z,7.96
2022-09-29T06:44:26.734Z,7.96
2022-09-29T06:46:54.210Z,8.10
2022-09-29T06:49:21.280Z,8.10
2022-09-29T06:51:47.896Z,8.10
2022-09-29T06:54:15.763Z,8.13
2022-09-29T06:56:42.723Z,8.29
2022-09-29T06:59:09.516Z,8.50
2022-09-29T07:01:35.953Z,8.39
2022-09-29T07:04:02.528Z,8.73
2022-09-29T07:06:30.305Z,8.82
2022-09-29T07:08:58.852Z,8.89
2022-09-29T07:11:26.452Z,8.96
2022-09-29T07:13:54.899Z,8.96
2022-09-29T07:16:24.000Z,8.97
2022-09-29T07:18:51.348Z,9.04
2022-09-29T07:21:18.603Z,8.81
2022-09-29T07:23:46.362Z,8.76
2022-09-29T07:26:13.182Z,9.01
2022-09-29T07:28:40.152Z,8.97
2022-09-29T07:31:14.765Z,9.03
2022-09-29T07:33:42.171Z,9.22
2022-09-29T07:36:08.715Z,9.19
2022-09-29T07:38:35.333Z,9.52
2022-09-29T07:41:11.728Z,9.74
2022-09-29T07:43:38.725Z,9.82
2022-09-29T07:46:05.720Z,9.89
2022-09-29T07:48:33.770Z,9.97
2022-09-29T07:51:10.022Z,10.71
2022-09-29T07:53:37.124Z,10.60
2022-09-29T07:56:14.312Z,10.76
2022-09-29T07:58:42.042Z,10.61
2022-09-29T08:01:12.773Z,10.85
2022-09-29T08:03:40.791Z,11.72
2022-09-29T08:06:07.824Z,12.76
2022-09-29T08:08:42.599Z,11.86
2022-09-29T08:11:24.884Z,14.44
2022-09-29T08:13:56.451Z,15.17
2022-09-29T08:16:23.574Z,13.68
2022-09-29T08:18:50.533Z,14.11
2022-09-29T08:21:17.482Z,14.27
2022-09-29T08:23:44.163Z,15.17
2022-09-29T08:26:16.731Z,14.77
2022-09-29T08:28:45.110Z,14.06
2022-09-29T08:31:15.232Z,13.46
2022-09-29T08:33:41.787Z,13.05
2022-09-29T08:36:17.658Z,13.04
2022-09-29T08:38:45.449Z,12.75
2022-09-29T08:41:46.347Z,12.56
2022-09-29T08:44:32.465Z,13.30
2022-09-29T08:47:18.477Z,14.60
2022-09-29T08:49:55.296Z,15.47
2022-09-29T08:52:27.083Z,16.32
2022-09-29T08:55:08.791Z,15.38
2022-09-29T08:57:40.844Z,14.94
2022-09-29T09:00:12.570Z,15.07
2022-09-29T09:03:19.667Z,13.94
2022-09-29T09:06:14.513Z,14.60
2022-09-29T09:09:02.701Z,14.27
2022-09-29T09:12:23.121Z,14.03
2022-09-29T09:15:20.185Z,14.42
2022-09-29T09:18:09.105Z,14.14
2022-09-29T09:20:53.527Z,14.24
2022-09-29T09:23:21.765Z,13.71
2022-09-29T09:25:55.303Z,13.74
2022-09-29T09:28:26.886Z,14.48
2022-09-29T09:31:06.311Z,14.30
2022-09-29T09:33:58.304Z,14.52
2022-09-29T09:37:04.691Z,14.12
2022-09-29T09:39:55.730Z,13.84
2022-09-29T09:42:27.706Z,15.50
2022-09-29T09:45:27.141Z,17.04
2022-09-29T09:48:01.358Z,15.69
2022-09-29T09:50:28.402Z,16.15
2022-09-29T09:53:14.559Z,15.06
2022-09-29T09:55:43.219Z,15.41
2022-09-29T09:58:45.070Z,16.22
2022-09-29T10:01:14.497Z,16.44
2022-09-29T10:03:40.929Z,17.85
2022-09-29T10:06:09.472Z,18.30
2022-09-29T10:08:39.994Z,19.15
2022-09-29T10:11:12.659Z,19.00
2022-09-29T10:13:39.341Z,19.72
2022-09-29T10:16:23.684Z,20.04
2022-09-29T10:18:53.687Z,20.99
2022-09-29T10:21:36.167Z,20.79
2022-09-29T10:24:06.238Z,19.70
2022-09-29T10:26:43.302Z,20.16
2022-09-29T10:29:28.284Z,20.33
2022-09-29T10:32:23.858Z,18.75
2022-09-29T10:34:56.859Z,16.50
2022-09-29T10:37:26.744Z,16.99
2022-09-29T10:40:08.839Z,18.68
2022-09-29T10:42:37.317Z,18.46
2022-09-29T10:45:19.008Z,18.33
2022-09-29T10:48:07.420Z,17.54
2022-09-29T10:50:47.882Z,18.65
2022-09-29T10:53:24.896Z,18.23
2022-09-29T10:55:55.124Z,18.17
2022-09-29T10:58:45.198Z,16.81
2022-09-29T11:01:17.419Z,18.61
2022-09-29T11:03:52.473Z,18.36
2022-09-29T11:06:27.404Z,18.91
2022-09-29T11:09:01.886Z,18.50
2022-09-29T11:11:34.349Z,19.82
2022-09-29T11:14:01.303Z,19.87
2022-09-29T11:16:30.823Z,20.02
2022-09-29T11:19:01.227Z,20.73
2022-09-29T11:21:59.049Z,20.03
2022-09-29T11:24:28.357Z,20.61
2022-09-29T11:27:23.224Z,21.06
2022-09-29T11:30:07.970Z,20.29
2022-09-29T11:33:05.210Z,19.14
2022-09-29T11:35:32.380Z,20.21
2022-09-29T11:38:16.487Z,19.58
2022-09-29T11:41:34.193Z,19.70
2022-09-29T11:44:23.148Z,19.55
2022-09-29T11:47:12.269Z,18.07
2022-09-29T11:49:56.083Z,17.41
2022-09-29T11:52:47.423Z,16.00
2022-09-29T11:55:51.423Z,15.72
2022-09-29T11:58:23.716Z,15.12
2022-09-29T12:00:50.186Z,15.63
2022-09-29T12:03:19.354Z,15.92
2022-09-29T12:06:23.981Z,15.35
2022-09-29T12:09:01.632Z,15.53
2022-09-29T12:14:54.899Z,14.90
2022-09-29T12:17:23.382Z,15.21
2022-09-29T12:20:00.688Z,15.21
2022-09-29T12:22:29.423Z,15.19
2022-09-29T12:24:59.772Z,14.99
2022-09-29T12:27:36.510Z,14.75
2022-09-29T12:30:26.163Z,14.52
2022-09-29T12:33:14.453Z,14.69
2022-09-29T12:35:59.799Z,14.71
2022-09-29T12:38:37.021Z,14.13
2022-09-29T12:41:20.393Z,14.22
2022-09-29T12:43:58.828Z,14.73
2022-09-29T12:46:38.309Z,13.94
2022-09-29T12:49:18.537Z,13.48
2022-09-29T12:51:47.746Z,13.82
2022-09-29T12:54:35.705Z,13.92
2022-09-29T12:57:11.500Z,14.79
2022-09-29T12:59:48.995Z,15.46
2022-09-29T13:02:28.142Z,15.12
2022-09-29T13:05:30.742Z,15.41
2022-09-29T13:08:14.620Z,14.59
2022-09-29T13:10:55.641Z,14.53
2022-09-29T13:13:37.237Z,15.36
2022-09-29T13:16:12.653Z,15.50
2022-09-29T13:19:20.147Z,15.43
2022-09-29T13:22:22.218Z,15.75
2022-09-29T13:25:21.855Z,15.36
2022-09-29T13:27:51.667Z,15.27
2022-09-29T13:30:19.559Z,15.46
2022-09-29T13:32:49.638Z,15.56
2022-09-29T13:35:20.629Z,15.51
2022-09-29T13:38:02.995Z,15.77
2022-09-29T13:40:30.877Z,15.71
2022-09-29T13:43:05.689Z,16.02
2022-09-29T13:45:35.517Z,15.36
2022-09-29T13:48:17.749Z,15.41
2022-09-29T13:50:45.541Z,15.42
2022-09-29T13:53:33.452Z,15.37
2022-09-29T13:56:02.769Z,14.91
2022-09-29T13:58:33.571Z,15.09
2022-09-29T14:01:03.501Z,15.07
2022-09-29T14:03:34.558Z,15.23
2022-09-29T14:06:39.774Z,15.30
2022-09-29T14:09:23.237Z,14.84
2022-09-29T14:11:52.770Z,14.87
2022-09-29T14:14:37.820Z,15.25
2022-09-29T14:17:17.281Z,14.86
2022-09-29T14:19:51.035Z,14.31
2022-09-29T14:22:26.244Z,14.36
2022-09-29T14:24:55.899Z,14.09
2022-09-29T14:27:39.991Z,14.22
2022-09-29T14:30:09.083Z,14.04
2022-09-29T14:32:48.661Z,13.83
2022-09-29T14:35:27.565Z,13.93
2022-09-29T14:38:17.209Z,13.93
2022-09-29T14:40:57.398Z,13.99
2022-09-29T14:43:43.023Z,13.83
2022-09-29T14:46:56.408Z,13.54
2022-09-29T14:50:12.452Z,13.62
2022-09-29T14:52:38.820Z,13.39
2022-09-29T14:55:15.599Z,13.19
2022-09-29T14:58:00.635Z,13.43
2022-09-29T15:00:41.930Z,13.22
2022-09-29T15:03:26.417Z,13.26
2022-09-29T15:06:24.675Z,12.87
2022-09-29T15:09:17.022Z,12.87
2022-09-29T15:12:04.505Z,12.27
2022-09-29T15:14:36.971Z,12.45
2022-09-29T15:17:38.010Z,12.06
2022-09-29T15:20:11.320Z,11.84
2022-09-29T15:23:20.738Z,11.78
2022-09-29T15:25:47.278Z,12.04
2022-09-29T15:28:34.673Z,11.63
2022-09-29T15:31:05.041Z,11.88
2022-09-29T15:33:36.675Z,11.89
2022-09-29T15:36:05.950Z,11.81
2022-09-29T15:38:34.434Z,11.64
2022-09-29T15:41:04.203Z,11.30
2022-09-29T15:43:43.773Z,11.27
2022-09-29T15:46:22.762Z,11.44
2022-09-29T15:49:12.774Z,11.76
2022-09-29T15:51:41.130Z,11.64
2022-09-29T15:54:10.918Z,11.47
2022-09-29T15:56:57.120Z,11.43
2022-09-29T15:59:42.105Z,11.41
2022-09-29T16:02:26.579Z,11.27
2022-09-29T16:04:56.439Z,11.50
2022-09-29T16:07:30.704Z,11.60
2022-09-29T16:10:22.775Z,11.45
2022-09-29T16:13:02.335Z,11.50
2022-09-29T16:15:32.206Z,11.46
2022-09-29T16:18:06.443Z,11.46
2022-09-29T16:20:35.335Z,11.51
2022-09-29T16:23:16.955Z,11.42
2022-09-29T16:25:44.655Z,11.18
2022-09-29T16:28:30.431Z,11.17
2022-09-29T16:31:20.193Z,11.18
2022-09-29T16:33:54.813Z,11.16
2022-09-29T16:36:27.036Z,11.10
2022-09-29T16:38:54.943Z,10.45
2022-09-29T16:41:34.408Z,10.59
2022-09-29T16:44:22.517Z,10.64
2022-09-29T16:46:55.663Z,10.80
2022-09-29T16:49:29.685Z,10.85
2022-09-29T16:52:01.213Z,10.87
2022-09-29T16:54:42.329Z,10.78
2022-09-29T16:57:25.653Z,10.81
2022-09-29T16:59:58.740Z,10.80
2022-09-29T17:02:26.886Z,10.92
2022-09-29T17:04:55.469Z,10.82
2022-09-29T17:07:24.967Z,10.64
2022-09-29T17:09:55.823Z,10.73
2022-09-29T17:12:23.708Z,10.71
2022-09-29T17:14:51.210Z,10.64
2022-09-29T17:17:22.514Z,10.35
2022-09-29T17:19:50.321Z,10.20
2022-09-29T17:22:34.637Z,9.95
2022-09-29T17:25:01.578Z,9.75
2022-09-29T17:27:46.955Z,9.72
2022-09-29T17:30:18.701Z,9.74
2022-09-29T17:32:46.895Z,9.72
2022-09-29T17:35:14.629Z,9.70
2022-09-29T17:37:42.032Z,9.73
2022-09-29T17:40:24.018Z,9.69
2022-09-29T17:42:51.404Z,9.62
2022-09-29T17:45:19.854Z,9.61
2022-09-29T17:47:49.322Z,9.66
2022-09-29T17:50:24.210Z,9.58
2022-09-29T17:52:51.962Z,9.60
2022-09-29T17:55:18.600Z,9.51
2022-09-29T17:57:47.511Z,9.47
2022-09-29T18:00:21.815Z,9.38
2022-09-29T18:02:50.683Z,9.46
2022-09-29T18:05:23.388Z,9.45
2022-09-29T18:07:54.659Z,9.40
2022-09-29T18:10:38.078Z,9.50
2022-09-29T18:13:04.501Z,9.58
2022-09-29T18:15:30.903Z,9.47
2022-09-29T18:17:58.789Z,9.45
2022-09-29T18:20:26.618Z,9.56
2022-09-29T18:22:52.987Z,9.66
2022-09-29T18:25:19.791Z,9.72
2022-09-29T18:27:47.375Z,9.61
2022-09-29T18:30:29.403Z,9.54
2022-09-29T18:33:00.747Z,9.41
2022-09-29T18:35:35.039Z,9.46
2022-09-29T18:38:02.631Z,9.35
2022-09-29T18:40:31.012Z,9.40
2022-09-29T18:42:59.533Z,9.33
2022-09-29T18:45:31.487Z,9.48
2022-09-29T18:48:03.351Z,9.53
2022-09-29T18:50:32.871Z,9.55
2022-09-29T18:53:01.575Z,9.56
2022-09-29T18:55:30.076Z,9.65
2022-09-29T18:57:58.482Z,9.52
2022-09-29T19:00:27.650Z,9.52
2022-09-29T19:02:54.229Z,9.54
2022-09-29T19:05:23.887Z,9.56
2022-09-29T19:07:57.099Z,9.58
2022-09-29T19:10:23.592Z,9.64
2022-09-29T19:12:51.055Z,9.52
2022-09-29T19:15:20.655Z,9.44
2022-09-29T19:17:48.685Z,9.33
2022-09-29T19:20:17.699Z,9.36
2022-09-29T19:22:46.022Z,9.39
2022-09-29T19:25:16.435Z,9.17
2022-09-29T19:27:44.011Z,9.22
2022-09-29T19:30:13.424Z,9.16
2022-09-29T19:32:40.360Z,9.14
2022-09-29T19:35:09.383Z,9.12
2022-09-29T19:37:36.286Z,9.09
2022-09-29T19:40:04.308Z,9.18
2022-09-29T19:42:30.698Z,9.15
2022-09-29T19:44:57.089Z,9.15
2022-09-29T19:47:23.480Z,9.17
2022-09-29T19:49:49.949Z,9.10
2022-09-29T19:52:16.301Z,8.91
2022-09-29T19:54:42.833Z,8.91
2022-09-29T19:57:14.729Z,8.75
2022-09-29T19:59:41.679Z,8.80
2022-09-29T20:02:12.737Z,8.76
2022-09-29T20:04:40.025Z,8.78
2022-09-29T20:07:06.813Z,8.70
2022-09-29T20:09:33.806Z,8.65
2022-09-29T20:12:00.741Z,8.61
2022-09-29T20:14:27.624Z,8.83
2022-09-29T20:16:56.805Z,8.88
2022-09-29T20:19:24.042Z,8.86
2022-09-29T20:21:52.408Z,8.88
2022-09-29T20:24:21.504Z,8.67
2022-09-29T20:26:48.723Z,8.66
2022-09-29T20:29:18.415Z,8.41
2022-09-29T20:31:48.420Z,8.18
2022-09-29T20:34:18.352Z,8.17
2022-09-29T20:36:44.988Z,8.15
2022-09-29T20:39:12.298Z,8.05
2022-09-29T20:41:38.749Z,7.91
2022-09-29T20:44:05.380Z,7.95
2022-09-29T20:46:31.900Z,7.88
2022-09-29T20:48:59.714Z,7.81
2022-09-29T20:51:26.645Z,7.75
2022-09-29T20:53:59.697Z,7.71
2022-09-29T20:56:35.852Z,7.64
2022-09-29T20:59:03.000Z,7.57
2022-09-29T21:01:32.108Z,7.55
2022-09-29T21:04:05.299Z,7.46
2022-09-29T21:06:34.194Z,7.46
2022-09-29T21:09:01.975Z,7.32
2022-09-29T21:11:28.382Z,7.23
2022-09-29T21:13:56.931Z,7.21
2022-09-29T21:16:24.855Z,7.19
2022-09-29T21:18:54.165Z,7.10
2022-09-29T21:21:20.737Z,7.00
2022-09-29T21:23:48.642Z,7.03
2022-09-29T21:26:17.550Z,6.99
2022-09-29T21:28:49.815Z,7.02
2022-09-29T21:31:18.234Z,6.90
2022-09-29T21:33:46.221Z,6.82
2022-09-29T21:36:15.267Z,6.79
2022-09-29T21:38:43.314Z,6.74
2022-09-29T21:41:22.579Z,6.63
2022-09-29T21:43:51.400Z,6.48
2022-09-29T21:46:20.928Z,6.36
2022-09-29T21:48:56.019Z,6.37
2022-09-29T21:51:25.326Z,6.31
2022-09-29T21:53:53.352Z,6.25
2022-09-29T21:56:22.619Z,6.26
2022-09-29T21:58:52.006Z,6.12
2022-09-29T22:01:19.410Z,6.10
2022-09-29T22:03:48.398Z,6.09
2022-09-29T22:06:16.382Z,6.06
2022-09-29T22:08:43.499Z,6.05
2022-09-29T22:11:10.451Z,6.01
2022-09-29T22:13:37.215Z,5.95
2022-09-29T22:16:08.400Z,5.90
2022-09-29T22:18:41.673Z,5.79
2022-09-29T22:21:09.727Z,5.74
2022-09-29T22:23:36.489Z,5.71
2022-09-29T22:26:03.409Z,5.62
2022-09-29T22:28:30.408Z,5.60
2022-09-29T22:31:08.751Z,5.60
2022-09-29T22:33:37.408Z,5.56
2022-09-29T22:36:04.974Z,5.52
2022-09-29T22:38:34.372Z,5.51
2022-09-29T22:41:00.736Z,5.44
2022-09-29T22:43:27.144Z,5.47
2022-09-29T22:45:53.507Z,5.41
2022-09-29T22:48:20.086Z,5.49
2022-09-29T22:50:48.397Z,5.38
2022-09-29T22:53:15.759Z,5.38
2022-09-29T22:55:42.331Z,5.35
2022-09-29T22:58:12.551Z,5.35
2022-09-29T23:00:40.784Z,5.46
2022-09-29T23:03:10.112Z,5.39
2022-09-29T23:05:37.229Z,5.40
2022-09-29T23:08:03.823Z,5.44
2022-09-29T23:10:30.185Z,5.43
2022-09-29T23:12:56.553Z,5.53
2022-09-29T23:15:22.973Z,5.54
2022-09-29T23:17:51.247Z,5.70
2022-09-29T23:20:17.664Z,5.78
2022-09-29T23:22:44.026Z,5.90
2022-09-29T23:25:10.421Z,5.83
2022-09-29T23:27:36.787Z,5.92
2022-09-29T23:30:03.386Z,5.69
2022-09-29T23:32:29.763Z,5.41
2022-09-29T23:34:56.211Z,5.35
2022-09-29T23:37:22.608Z,5.20
2022-09-29T23:39:49.026Z,5.24
2022-09-29T23:42:15.589Z,5.21
2022-09-29T23:44:42.117Z,5.23
2022-09-29T23:47:08.489Z,5.31
2022-09-29T23:49:35.279Z,5.40
2022-09-29T23:52:04.292Z,5.52
2022-09-29T23:54:30.863Z,5.51
2022-09-29T23:56:58.222Z,5.61
2022-09-29T23:59:25.776Z,5.72
